KHZE

Details ICAO KHZE
Name MERCER CO RGNL
Region United States
Timezone America/North_Dakota/Beulah (UTC-5.0)
Plans Departing 3
Arriving 2
Stats Elevation 1,813 ft / 553 m (AMSL)
Location 47.289861° -101.580945°
Runways 1
Magnetic Variation 6.525° E
Sunrise 2018-05-22 11:03:31 UTC / 2018-05-22 06:03:31 Local
Sunset 2018-05-23 02:25:22 UTC / 2018-05-22 21:25:22 Local
Advertisement - Login to hide

Runways

ID Width Length Bearing (true) Bearing (mag) Surface Threshold Offset Overrun Length
14 75 ft / 23 m 4,998 ft / 1,523 m 153.17° 146.65° Asphalt 0 ft / 0 m 0 ft / 0 m
32 75 ft / 23 m 4,998 ft / 1,523 m 333.18° 326.66° Asphalt 0 ft / 0 m 0 ft / 0 m

Map

Weather


0- 5 10 15 20 25 30 35+ Temperature / ° C

Clouds and Precipitation
Forecast for 2018-05-23 00:00 UTC. Updated 43 minutes ago

Ground ~20,000 ft ~40,000 ft Winds

METAR

KHZE 222355Z AUTO 08008G13KT 10SM CLR 29/07 A2988 RMK AO2 TSNO

TAF

Not found

Frequencies

Unicom 122.80 MHz CTAF
Warning: Do not use this data for real-world aviation or navigation. No guarantee of current accuracy is given.